Turner Lake (351) Station Data

Red Flag Warning: No
Fire Weather Zone: 250
SDGE Region: North East
Lat/Lon: 33.226/-117.076

Observations

Time Wind Speed/Gust Temp(F) RH Fuel Moist Fuel Temp(F) Dewpt(F) Tmax(F) Tmin(F) Accum Precip 10-min Precip SL Press(mb)
3/29 8:00am 121 7 G 10 57° 38% - - 31° 60.5° 48.5° - - 870.0
3/29 7:50am 135 2 G 5 59° 34% - - 31° 60.5° 48.5° - - 868.0
3/29 7:40am 149 4 G 7 55° 37% - - 30° 58.1° 48.5° - - 869.0
3/29 7:30am 154 4 G 7 53° 43% - - 31° 58.1° 48.5° - - 871.0
3/29 7:20am 94 3 G 5 55° 38% - - 30° 58.1° 48.5° - - 869.0
3/29 7:10am 3 1 G 2 58° 31% - - 27° 58.1° 48.5° - - 867.0
3/29 7:00am 111 2 G 5 55° 35% - - 28° 57.1° 48.5° - - 868.0
3/29 6:50am 150 4 G 6 54° 38% - - 29° 56.8° 48.5° - - 869.0
3/29 6:40am 143 3 G 7 53° 43% - - 31° 56.8° 48.5° - - 871.0
3/29 6:30am 133 4 G 7 55° 39% - - 30° 56.8° 48.5° - - 869.0
3/29 6:20am 118 4 G 7 54° 43% - - 31° 56.8° 48.5° - - 871.0
3/29 6:10am 154 5 G 8 51° 52% - - 34° 55.4° 48.5° - - 874.0
3/29 6:00am 162 4 G 6 50° 54% - - 34° 55.4° 48.5° - - 875.0
3/29 5:50am 140 5 G 7 52° 51% - - 34° 55.4° 48.5° - - 874.0
3/29 5:40am 124 5 G 10 52° 51% - - 35° 55.4° 48.5° - - 874.0
3/29 5:30am 129 5 G 8 51° 55% - - 35° 55.4° 48.5° - - 875.0
3/29 5:20am 135 6 G 12 52° 54% - - 36° 55.4° 48.8° - - 875.0
3/29 5:10am 114 5 G 8 51° 57% - - 36° 55.4° 48.8° - - 876.0
3/29 5:00am 158 4 G 7 50° 58% - - 36° 55.4° 48.8° - - 876.0
3/29 4:50am 117 6 G 8 51° 56% - - 36° 55.4° 48.8° - - 876.0
3/29 4:40am 126 6 G 9 49° 61% - - 37° 55.4° 48.8° - - 878.0
3/29 4:30am 117 7 G 10 50° 60% - - 37° 55.4° 48.9° - - 877.0
3/29 4:20am 117 3 G 6 51° 59% - - 37° 55.4° 48.9° - - 877.0
3/29 4:10am 131 3 G 8 51° 58% - - 37° 55.4° 48.9° - - 877.0
3/29 4:00am 116 2 G 5 50° 61% - - 37° 55.4° 48.9° - - 878.0
3/29 3:50am 122 3 G 7 51° 61% - - 38° 55.4° 48.9° - - 877.0
3/29 3:40am 109 4 G 7 51° 60% - - 38° 55.4° 48.9° - - 877.0
3/29 3:30am 108 5 G 7 51° 62% - - 38° 55.4° 48.9° - - 878.0
3/29 3:20am 119 4 G 6 51° 61% - - 38° 55.4° 48.9° - - 878.0
3/29 3:10am 117 3 G 6 51° 61% - - 38° 55.4° 48.9° - - 878.0
3/29 3:00am 112 4 G 6 51° 61% - - 38° 55.4° 48.9° - - 878.0
3/29 2:50am 116 4 G 6 52° 61% - - 39° 55.4° 48.9° - - 878.0
3/29 2:40am 130 4 G 8 52° 62% - - 39° 55.4° 48.9° - - 878.0
3/29 2:30am 113 5 G 9 50° 66% - - 39° 55.4° 48.9° - - 880.0
3/29 2:20am 119 3 G 6 52° 61% - - 39° 55.4° 50° - - 878.0
3/29 2:10am 122 4 G 8 51° 63% - - 39° 55.4° 50° - - 879.0
3/29 2:00am 119 4 G 8 52° 61% - - 40° 55.4° 50° - - 878.0
3/29 1:50am 123 6 G 9 51° 64% - - 39° 55.4° 50° - - 879.0
3/29 1:40am 127 4 G 8 52° 63% - - 39° 55.4° 50° - - 879.0
3/29 1:30am 111 3 G 6 54° 57% - - 39° 55.4° 50° - - 877.0
3/29 1:20am 129 3 G 4 51° 63% - - 39° 54.9° 50° - - 879.0
3/29 1:10am 123 5 G 10 53° 61% - - 39° 54.9° 50.6° - - 878.0
3/29 1:00am 121 3 G 4 52° 62% - - 40° 54.9° 50.6° - - 879.0
3/29 12:50am 125 3 G 6 52° 63% - - 40° 54.9° 50.6° - - 879.0
3/29 12:40am 121 3 G 7 52° 63% - - 40° 54.9° 50.6° - - 879.0
3/29 12:30am 122 5 G 9 51° 65% - - 40° 54.9° 50.6° - - 880.0
3/29 12:20am 125 5 G 7 51° 64% - - 40° 54.9° 50.7° - - 880.0
3/29 12:10am 120 5 G 8 53° 59% - - 39° 54.9° 51.4° - - 878.0
3/29 12:00am 122 4 G 6 54° 59% - - 39° 73.3° 44.2° - - 878.0
3/28 11:50pm 121 4 G 8 53° 60% - - 39° 73.3° 44.2° - - 878.0
3/28 11:40pm 114 6 G 8 53° 60% - - 40° 73.3° 44.2° - - 878.0
3/28 11:30pm 117 4 G 7 54° 57% - - 39° 73.3° 44.2° - - 877.0
3/28 11:20pm 118 4 G 5 55° 55% - - 39° 73.3° 44.2° - - 877.0
3/28 11:10pm 137 3 G 5 54° 58% - - 39° 73.3° 44.2° - - 877.0
3/28 11:00pm 157 4 G 5 54° 57% - - 39° 73.3° 44.2° - - 877.0
3/28 10:50pm 145 3 G 5 53° 59% - - 39° 73.3° 44.2° - - 878.0
3/28 10:40pm 125 3 G 5 54° 57% - - 39° 73.3° 44.2° - - 877.0
3/28 10:30pm 122 4 G 6 54° 57% - - 39° 73.3° 44.2° - - 877.0
3/28 10:20pm 106 5 G 6 54° 56% - - 39° 73.3° 44.2° - - 877.0
3/28 10:10pm 109 5 G 7 54° 55% - - 39° 73.3° 44.2° - - 877.0
3/28 10:00pm 113 5 G 7 55° 53% - - 38° 73.3° 44.2° - - 876.0
3/28 9:50pm 111 4 G 6 54° 54% - - 38° 73.3° 44.2° - - 876.0
3/28 9:40pm 125 4 G 6 55° 53% - - 38° 73.3° 44.2° - - 876.0
3/28 9:30pm 143 4 G 7 55° 51% - - 37° 73.3° 44.2° - - 875.0
3/28 9:20pm 118 5 G 8 55° 50% - - 37° 73.3° 44.2° - - 875.0
3/28 9:10pm 118 5 G 8 55° 49% - - 37° 73.3° 44.2° - - 875.0
3/28 9:00pm 157 3 G 6 55° 49% - - 36° 73.3° 44.2° - - 875.0
3/28 8:50pm 109 4 G 7 56° 47% - - 36° 73.3° 44.2° - - 874.0
3/28 8:40pm 120 3 G 6 58° 43% - - 35° 73.3° 44.2° - - 873.0
3/28 8:30pm 121 1 G 3 59° 40% - - 35° 73.3° 44.2° - - 872.0
3/28 8:20pm 98 2 G 3 59° 39% - - 34° 73.3° 44.2° - - 872.0
3/28 8:10pm 120 2 G 5 59° 41% - - 35° 73.3° 44.2° - - 873.0
3/28 8:00pm 299 1 G 4 60° 38% - - 34° 73.3° 44.2° - - 872.0
3/28 7:50pm 236 1 G 3 60° 36% - - 33° 73.3° 44.2° - - 871.0
3/28 7:40pm 122 1 G 3 61° 35% - - 33° 73.3° 44.2° - - 871.0
3/28 7:30pm 195 1 G 3 61° 35% - - 33° 73.3° 44.2° - - 871.0
3/28 7:20pm 239 2 G 5 61° 35% - - 33° 73.3° 44.2° - - 872.0
3/28 7:10pm 197 2 G 4 62° 35% - - 34° 73.3° 44.2° - - 872.0
3/28 7:00pm 335 2 G 4 63° 31% - - 33° 73.3° 44.2° - - 871.0
3/28 6:50pm 265 1 G 2 64° 31% - - 33° 73.3° 44.2° - - 872.0
3/28 6:40pm 328 2 G 4 64° 30% - - 32° 73.3° 44.2° - - 872.0
3/28 6:30pm 281 3 G 6 65° 31% - - 33° 73.3° 44.2° - - 872.0
3/28 6:20pm 347 6 G 9 65° 30% - - 33° 73.3° 44.2° - - 872.0
3/28 6:10pm 339 7 G 8 65° 30% - - 34° 73.3° 44.2° - - 873.0
3/28 6:00pm 317 5 G 8 66° 30% - - 34° 73.3° 44.2° - - 873.0
3/28 5:50pm 320 6 G 9 66° 30% - - 34° 73.3° 44.2° - - 873.0
3/28 5:40pm 324 6 G 10 66° 29% - - 33° 73.3° 44.2° - - 873.0
3/28 5:30pm 325 9 G 12 66° 29% - - 33° 73.3° 44.2° - - 873.0
3/28 5:20pm 313 7 G 12 67° 30% - - 35° 73.3° 44.2° - - 874.0
3/28 5:10pm 301 8 G 12 67° 32% - - 37° 73.3° 44.2° - - 875.0
3/28 5:00pm 266 10 G 15 67° 30% - - 34° 73.3° 44.2° - - 873.0
3/28 4:50pm 273 10 G 13 68° 26% - - 31° 73.3° 44.2° - - 872.0
3/28 4:40pm 274 10 G 14 68° 27% - - 33° 73.3° 44.2° - - 873.0
3/28 4:30pm 274 10 G 15 69° 28% - - 34° 73.3° 44.2° - - 874.0
3/28 4:20pm 269 10 G 13 69° 29% - - 35° 73.3° 44.2° - - 874.0
3/28 4:10pm 261 10 G 14 69° 29% - - 36° 73.3° 44.2° - - 875.0
3/28 4:00pm 265 11 G 18 69° 32% - - 38° 73.3° 44.2° - - 876.0
3/28 3:50pm 249 10 G 16 69° 31% - - 37° 73.3° 44.2° - - 876.0
3/28 3:40pm 265 11 G 15 70° 32% - - 39° 73.3° 44.2° - - 876.0
3/28 3:30pm 274 8 G 14 71° 29% - - 37° 73.3° 44.2° - - 875.0
3/28 3:20pm 340 5 G 10 73° 21% - - 30° 73.3° 44.2° - - 872.0
3/28 3:10pm 311 5 G 10 72° 22% - - 31° 73° 44.2° - - 872.0
3/28 3:00pm 328 6 G 11 71° 23% - - 32° 73° 44.2° - - 873.0
3/28 2:50pm 311 6 G 12 72° 24% - - 33° 73° 44.2° - - 872.0
3/28 2:40pm 329 7 G 12 71° 23% - - 31° 72.6° 44.2° - - 872.0
3/28 2:30pm 296 7 G 12 71° 21% - - 30° 72.4° 44.2° - - 871.0
3/28 2:20pm 302 6 G 12 72° 21% - - 30° 72.4° 44.2° - - 871.0
3/28 2:10pm 300 7 G 12 71° 20% - - 28° 71.8° 44.2° - - 870.0
3/28 2:00pm 301 6 G 11 71° 21% - - 29° 71.8° 44.2° - - 870.0
3/28 1:50pm 305 6 G 10 70° 22% - - 30° 71.3° 44.2° - - 870.0
3/28 1:40pm 317 6 G 13 70° 23% - - 30° 70.9° 44.2° - - 870.0
3/28 1:30pm 308 6 G 14 70° 24% - - 31° 70.9° 44.2° - - 871.0
3/28 1:20pm 283 6 G 14 69° 23% - - 30° 70.9° 44.2° - - 870.0
3/28 1:10pm 312 7 G 13 69° 23% - - 30° 70.9° 44.2° - - 870.0
3/28 1:00pm 336 6 G 12 69° 23% - - 30° 70.9° 44.2° - - 870.0
3/28 12:50pm 311 4 G 10 69° 20% - - 26° 70.9° 44.2° - - 869.0
3/28 12:40pm 328 5 G 10 69° 19% - - 25° 70.9° 44.2° - - 869.0
3/28 12:30pm 325 7 G 11 68° 20% - - 25° 69.1° 44.2° - - 869.0
3/28 12:20pm 302 7 G 11 68° 20% - - 25° 69.1° 44.2° - - 869.0
3/28 12:10pm 344 4 G 10 69° 20% - - 26° 69.1° 44.2° - - 869.0
3/28 12:00pm 338 4 G 9 67° 20% - - 25° 67.9° 44.2° - - 868.0
3/28 11:50am 319 4 G 9 67° 21% - - 25° 67.7° 44.2° - - 868.0
3/28 11:40am 286 5 G 10 66° 22% - - 27° 67.6° 44.2° - - 869.0
3/28 11:30am 288 6 G 11 67° 25% - - 30° 67.6° 44.2° - - 870.0
3/28 11:20am 320 4 G 9 66° 26% - - 30° 66.9° 44.2° - - 870.0
3/28 11:10am 4 5 G 9 65° 26% - - 30° 66.4° 44.2° - - 870.0
3/28 11:00am 1 5 G 12 65° 27% - - 30° 66.4° 44.2° - - 870.0
3/28 10:50am 351 4 G 7 65° 30% - - 33° 65.5° 44.2° - - 871.0
3/28 10:40am 323 5 G 12 64° 33% - - 34° 64.2° 44.2° - - 871.0
3/28 10:30am 334 6 G 11 63° 34% - - 34° 63.5° 44.2° - - 871.0
3/28 10:20am 340 5 G 9 62° 37% - - 36° 63.4° 44.2° - - 872.0
3/28 10:10am 340 5 G 12 61° 40% - - 37° 61.9° 44.2° - - 873.0
3/28 10:00am 333 5 G 9 60° 43% - - 38° 61° 44.2° - - 874.0
3/28 9:50am 320 4 G 8 59° 45% - - 38° 60.3° 44.2° - - 875.0
3/28 9:40am 325 6 G 10 59° 44% - - 37° 60.3° 44.2° - - 874.0
3/28 9:30am 330 4 G 9 59° 46% - - 38° 59.8° 44.2° - - 874.0
3/28 9:20am 313 4 G 8 58° 51% - - 40° 58.6° 44.2° - - 876.0
3/28 9:10am 324 2 G 4 57° 54% - - 40° 57° 44.2° - - 877.0
3/28 9:00am 284 2 G 3 56° 58% - - 41° 56.7° 44.2° - - 878.0
3/28 8:50am 196 3 G 4 55° 63% - - 43° 56.7° 44.2° - - 880.0
3/28 8:40am 200 2 G 3 55° 65% - - 44° 55.8° 44.2° - - 881.0
3/28 8:30am 158 2 G 4 55° 67% - - 44° 55.3° 44.2° - - 881.0
3/28 8:20am 143 2 G 4 54° 68% - - 43° 54.3° 44.2° - - 881.0
3/28 8:10am 179 0 G 3 53° 72% - - 44° 53.7° 44.2° - - 883.0
3/28 8:00am 121 2 G 3 50° 76% - - 43° 51.1° 44.2° - - 884.0
3/28 7:50am 137 2 G 4 49° 78% - - 42° 49.4° 44.2° - - 884.0
3/28 7:40am 151 3 G 6 47° 81% - - 42° 49.4° 44.2° - - 885.0
3/28 7:30am 122 4 G 8 46° 82% - - 41° 49.4° 44.2° - - 885.0
3/28 7:20am 126 4 G 8 46° 83% - - 41° 49.4° 44.2° - - 886.0
3/28 7:10am 137 4 G 8 45° 83% - - 40° 49.4° 44.2° - - 886.0
3/28 7:00am 123 6 G 8 45° 83% - - 41° 49.4° 44.2° - - 885.0
3/28 6:50am 111 4 G 7 46° 82% - - 41° 49.4° 44.2° - - 885.0
3/28 6:40am 20 1 G 3 47° 83% - - 42° 49.4° 44.2° - - 886.0
3/28 6:30am 347 2 G 5 47° 82% - - 42° 49.4° 44.2° - - 885.0
3/28 6:20am 19 3 G 5 48° 79% - - 42° 49.4° 44.2° - - 884.0
3/28 6:10am 169 3 G 6 46° 83% - - 42° 49.4° 44.2° - - 886.0
3/28 6:00am 127 6 G 10 47° 83% - - 42° 49.4° 44.2° - - 886.0